sensor_id;sensor_type;location;lat;lon;timestamp;temperature;humidity
47022;DHT22;32779;52.264;6.154;2023-05-10T00:01:33;13.20;99.90
47022;DHT22;32779;52.264;6.154;2023-05-10T00:03:59;13.20;99.90
47022;DHT22;32779;52.264;6.154;2023-05-10T00:06:24;13.20;99.90
47022;DHT22;32779;52.264;6.154;2023-05-10T00:08:50;13.20;99.90
47022;DHT22;32779;52.264;6.154;2023-05-10T00:11:15;13.20;99.90
47022;DHT22;32779;52.264;6.154;2023-05-10T00:13:41;13.20;99.90
47022;DHT22;32779;52.264;6.154;2023-05-10T00:16:06;13.20;99.90
47022;DHT22;32779;52.264;6.154;2023-05-10T00:18:32;13.20;99.90
47022;DHT22;32779;52.264;6.154;2023-05-10T00:20:57;13.20;99.90
47022;DHT22;32779;52.264;6.154;2023-05-10T00:23:23;13.30;99.90
47022;DHT22;32779;52.264;6.154;2023-05-10T00:25:48;13.20;99.90
47022;DHT22;32779;52.264;6.154;2023-05-10T00:28:14;13.20;99.90
47022;DHT22;32779;52.264;6.154;2023-05-10T00:30:39;13.30;99.90
47022;DHT22;32779;52.264;6.154;2023-05-10T00:33:05;13.30;99.90
47022;DHT22;32779;52.264;6.154;2023-05-10T00:35:30;13.30;99.90
47022;DHT22;32779;52.264;6.154;2023-05-10T00:37:56;13.30;99.90
47022;DHT22;32779;52.264;6.154;2023-05-10T00:40:21;13.30;99.90
47022;DHT22;32779;52.264;6.154;2023-05-10T00:42:47;13.30;99.90
47022;DHT22;32779;52.264;6.154;2023-05-10T00:45:12;13.30;99.90
47022;DHT22;32779;52.264;6.154;2023-05-10T00:47:38;13.30;99.90
47022;DHT22;32779;52.264;6.154;2023-05-10T00:50:03;13.20;99.90
47022;DHT22;32779;52.264;6.154;2023-05-10T00:52:30;13.20;99.90
47022;DHT22;32779;52.264;6.154;2023-05-10T00:54:56;13.20;99.90
47022;DHT22;32779;52.264;6.154;2023-05-10T00:57:22;13.10;99.90
47022;DHT22;32779;52.264;6.154;2023-05-10T00:59:47;13.10;99.90
47022;DHT22;32779;52.264;6.154;2023-05-10T01:02:13;13.00;99.90
47022;DHT22;32779;52.264;6.154;2023-05-10T01:04:39;13.00;99.90
47022;DHT22;32779;52.264;6.154;2023-05-10T01:07:04;13.00;99.90
47022;DHT22;32779;52.264;6.154;2023-05-10T01:09:30;13.00;99.90
47022;DHT22;32779;52.264;6.154;2023-05-10T01:11:56;12.90;99.90
47022;DHT22;32779;52.264;6.154;2023-05-10T01:14:21;12.90;99.90
47022;DHT22;32779;52.264;6.154;2023-05-10T01:16:47;12.90;99.90
47022;DHT22;32779;52.264;6.154;2023-05-10T01:19:19;12.90;99.90
47022;DHT22;32779;52.264;6.154;2023-05-10T01:29:44;12.80;99.90
47022;DHT22;32779;52.264;6.154;2023-05-10T01:34:47;12.80;99.90
47022;DHT22;32779;52.264;6.154;2023-05-10T01:37:19;12.80;99.90
47022;DHT22;32779;52.264;6.154;2023-05-10T01:39:47;12.80;99.90
47022;DHT22;32779;52.264;6.154;2023-05-10T01:42:17;12.80;99.90
47022;DHT22;32779;52.264;6.154;2023-05-10T01:47:28;12.80;99.90
47022;DHT22;32779;52.264;6.154;2023-05-10T01:49:56;12.90;99.90
47022;DHT22;32779;52.264;6.154;2023-05-10T01:52:24;12.90;99.90
47022;DHT22;32779;52.264;6.154;2023-05-10T01:54:55;12.90;99.90
47022;DHT22;32779;52.264;6.154;2023-05-10T01:57:22;12.90;99.90
47022;DHT22;32779;52.264;6.154;2023-05-10T01:59:50;13.00;99.90
47022;DHT22;32779;52.264;6.154;2023-05-10T02:02:16;13.00;99.90
47022;DHT22;32779;52.264;6.154;2023-05-10T02:04:42;13.00;99.90
47022;DHT22;32779;52.264;6.154;2023-05-10T02:07:08;13.00;99.90
47022;DHT22;32779;52.264;6.154;2023-05-10T02:09:34;13.00;99.90
47022;DHT22;32779;52.264;6.154;2023-05-10T02:12:02;13.00;99.90
47022;DHT22;32779;52.264;6.154;2023-05-10T02:14:30;13.00;99.90
47022;DHT22;32779;52.264;6.154;2023-05-10T02:16:58;13.00;99.90
47022;DHT22;32779;52.264;6.154;2023-05-10T02:19:24;13.00;99.90
47022;DHT22;32779;52.264;6.154;2023-05-10T02:21:50;13.00;99.90
47022;DHT22;32779;52.264;6.154;2023-05-10T02:24:17;13.00;99.90
47022;DHT22;32779;52.264;6.154;2023-05-10T02:26:43;13.10;99.90
47022;DHT22;32779;52.264;6.154;2023-05-10T02:29:09;13.10;99.90
47022;DHT22;32779;52.264;6.154;2023-05-10T02:31:35;13.10;99.90
47022;DHT22;32779;52.264;6.154;2023-05-10T02:34:01;13.10;99.90
47022;DHT22;32779;52.264;6.154;2023-05-10T02:36:28;13.10;99.90
47022;DHT22;32779;52.264;6.154;2023-05-10T02:38:53;13.10;99.90
47022;DHT22;32779;52.264;6.154;2023-05-10T02:41:20;13.10;99.90
47022;DHT22;32779;52.264;6.154;2023-05-10T02:43:49;13.10;99.90
47022;DHT22;32779;52.264;6.154;2023-05-10T02:46:16;13.10;99.90
47022;DHT22;32779;52.264;6.154;2023-05-10T02:48:41;13.10;99.90
47022;DHT22;32779;52.264;6.154;2023-05-10T02:51:07;13.10;99.90
47022;DHT22;32779;52.264;6.154;2023-05-10T02:53:34;13.20;99.90
47022;DHT22;32779;52.264;6.154;2023-05-10T02:56:01;13.20;99.90
47022;DHT22;32779;52.264;6.154;2023-05-10T02:58:29;13.20;99.90
47022;DHT22;32779;52.264;6.154;2023-05-10T03:00:54;13.20;99.90
47022;DHT22;32779;52.264;6.154;2023-05-10T03:03:20;13.20;99.90
47022;DHT22;32779;52.264;6.154;2023-05-10T03:05:46;13.30;99.90
47022;DHT22;32779;52.264;6.154;2023-05-10T03:08:11;13.30;99.90
47022;DHT22;32779;52.264;6.154;2023-05-10T03:13:37;13.30;99.90
47022;DHT22;32779;52.264;6.154;2023-05-10T03:16:08;13.30;99.90
47022;DHT22;32779;52.264;6.154;2023-05-10T03:18:48;13.30;99.90
47022;DHT22;32779;52.264;6.154;2023-05-10T03:21:16;13.30;99.90
47022;DHT22;32779;52.264;6.154;2023-05-10T03:23:54;13.30;99.90
47022;DHT22;32779;52.264;6.154;2023-05-10T03:26:24;13.30;99.90
47022;DHT22;32779;52.264;6.154;2023-05-10T03:28:50;13.30;99.90
47022;DHT22;32779;52.264;6.154;2023-05-10T03:31:17;13.30;99.90
47022;DHT22;32779;52.264;6.154;2023-05-10T03:33:49;13.30;99.90
47022;DHT22;32779;52.264;6.154;2023-05-10T03:36:15;13.40;99.90
47022;DHT22;32779;52.264;6.154;2023-05-10T03:38:41;13.40;99.90
47022;DHT22;32779;52.264;6.154;2023-05-10T03:41:07;13.30;99.90
47022;DHT22;32779;52.264;6.154;2023-05-10T03:43:32;13.40;99.90
47022;DHT22;32779;52.264;6.154;2023-05-10T03:45:58;13.40;99.90
47022;DHT22;32779;52.264;6.154;2023-05-10T03:48:23;13.40;99.90
47022;DHT22;32779;52.264;6.154;2023-05-10T03:50:49;13.40;99.90
47022;DHT22;32779;52.264;6.154;2023-05-10T03:53:15;13.40;99.90
47022;DHT22;32779;52.264;6.154;2023-05-10T03:55:40;13.40;99.90
47022;DHT22;32779;52.264;6.154;2023-05-10T03:58:06;13.40;99.90
47022;DHT22;32779;52.264;6.154;2023-05-10T04:00:31;13.40;99.90
47022;DHT22;32779;52.264;6.154;2023-05-10T04:02:57;13.40;99.90
47022;DHT22;32779;52.264;6.154;2023-05-10T04:05:23;13.40;99.90
47022;DHT22;32779;52.264;6.154;2023-05-10T04:07:48;13.30;99.90
47022;DHT22;32779;52.264;6.154;2023-05-10T04:10:15;13.30;99.90
47022;DHT22;32779;52.264;6.154;2023-05-10T04:12:41;13.30;99.90
47022;DHT22;32779;52.264;6.154;2023-05-10T04:15:07;13.30;99.90
47022;DHT22;32779;52.264;6.154;2023-05-10T04:17:33;13.30;99.90
47022;DHT22;32779;52.264;6.154;2023-05-10T04:19:58;13.30;99.90
47022;DHT22;32779;52.264;6.154;2023-05-10T04:22:24;13.30;99.90
47022;DHT22;32779;52.264;6.154;2023-05-10T04:24:49;13.30;99.90
47022;DHT22;32779;52.264;6.154;2023-05-10T04:27:14;13.30;99.90
47022;DHT22;32779;52.264;6.154;2023-05-10T04:29:40;13.30;99.90
47022;DHT22;32779;52.264;6.154;2023-05-10T04:32:06;13.30;99.90
47022;DHT22;32779;52.264;6.154;2023-05-10T04:34:31;13.30;99.90
47022;DHT22;32779;52.264;6.154;2023-05-10T04:36:59;13.30;99.90
47022;DHT22;32779;52.264;6.154;2023-05-10T04:39:25;13.30;99.90
47022;DHT22;32779;52.264;6.154;2023-05-10T04:41:50;13.30;99.90
47022;DHT22;32779;52.264;6.154;2023-05-10T04:44:16;13.30;99.90
47022;DHT22;32779;52.264;6.154;2023-05-10T04:46:41;13.40;99.90
47022;DHT22;32779;52.264;6.154;2023-05-10T04:49:07;13.40;99.90
47022;DHT22;32779;52.264;6.154;2023-05-10T04:51:32;13.40;99.90
47022;DHT22;32779;52.264;6.154;2023-05-10T04:53:58;13.40;99.90
47022;DHT22;32779;52.264;6.154;2023-05-10T04:56:23;13.30;99.90
47022;DHT22;32779;52.264;6.154;2023-05-10T04:58:49;13.40;99.90
47022;DHT22;32779;52.264;6.154;2023-05-10T05:01:14;13.40;99.90
47022;DHT22;32779;52.264;6.154;2023-05-10T05:03:40;13.40;99.90
47022;DHT22;32779;52.264;6.154;2023-05-10T05:06:05;13.40;99.90
47022;DHT22;32779;52.264;6.154;2023-05-10T05:08:31;13.30;99.90
47022;DHT22;32779;52.264;6.154;2023-05-10T05:10:56;13.30;99.90
47022;DHT22;32779;52.264;6.154;2023-05-10T05:13:22;13.30;99.90
47022;DHT22;32779;52.264;6.154;2023-05-10T05:15:47;13.30;99.90
47022;DHT22;32779;52.264;6.154;2023-05-10T05:18:13;13.30;99.90
47022;DHT22;32779;52.264;6.154;2023-05-10T05:20:38;13.30;99.90
47022;DHT22;32779;52.264;6.154;2023-05-10T05:23:04;13.30;99.90
47022;DHT22;32779;52.264;6.154;2023-05-10T05:25:29;13.30;99.90
47022;DHT22;32779;52.264;6.154;2023-05-10T05:27:55;13.30;99.90
47022;DHT22;32779;52.264;6.154;2023-05-10T05:30:20;13.30;99.90
47022;DHT22;32779;52.264;6.154;2023-05-10T05:32:46;13.20;99.90
47022;DHT22;32779;52.264;6.154;2023-05-10T05:35:12;13.20;99.90
47022;DHT22;32779;52.264;6.154;2023-05-10T05:37:37;13.20;99.90
47022;DHT22;32779;52.264;6.154;2023-05-10T05:40:03;13.20;99.90
47022;DHT22;32779;52.264;6.154;2023-05-10T05:42:29;13.20;99.90
47022;DHT22;32779;52.264;6.154;2023-05-10T05:44:56;13.20;99.90
47022;DHT22;32779;52.264;6.154;2023-05-10T05:47:21;13.20;99.90
47022;DHT22;32779;52.264;6.154;2023-05-10T05:49:46;13.20;99.90
47022;DHT22;32779;52.264;6.154;2023-05-10T05:52:12;13.20;99.90
47022;DHT22;32779;52.264;6.154;2023-05-10T05:54:37;13.20;99.90
47022;DHT22;32779;52.264;6.154;2023-05-10T05:57:03;13.20;99.90
47022;DHT22;32779;52.264;6.154;2023-05-10T05:59:28;13.30;99.90
47022;DHT22;32779;52.264;6.154;2023-05-10T06:01:54;13.30;99.90
47022;DHT22;32779;52.264;6.154;2023-05-10T06:04:19;13.20;99.90
47022;DHT22;32779;52.264;6.154;2023-05-10T06:06:45;13.30;99.90
47022;DHT22;32779;52.264;6.154;2023-05-10T06:09:11;13.30;99.90
47022;DHT22;32779;52.264;6.154;2023-05-10T06:11:36;13.40;99.90
47022;DHT22;32779;52.264;6.154;2023-05-10T06:14:02;13.40;99.90
47022;DHT22;32779;52.264;6.154;2023-05-10T06:16:29;13.40;99.90
47022;DHT22;32779;52.264;6.154;2023-05-10T06:18:55;13.40;99.90
47022;DHT22;32779;52.264;6.154;2023-05-10T06:21:20;13.40;99.90
47022;DHT22;32779;52.264;6.154;2023-05-10T06:23:46;13.40;99.90
47022;DHT22;32779;52.264;6.154;2023-05-10T06:26:11;13.40;99.90
47022;DHT22;32779;52.264;6.154;2023-05-10T06:28:37;13.50;99.90
47022;DHT22;32779;52.264;6.154;2023-05-10T06:31:05;13.40;99.90
47022;DHT22;32779;52.264;6.154;2023-05-10T06:33:31;13.50;99.90
47022;DHT22;32779;52.264;6.154;2023-05-10T06:35:57;13.50;99.90
47022;DHT22;32779;52.264;6.154;2023-05-10T06:38:22;13.50;99.90
47022;DHT22;32779;52.264;6.154;2023-05-10T06:40:48;13.50;99.90
47022;DHT22;32779;52.264;6.154;2023-05-10T06:43:13;13.50;99.90
47022;DHT22;32779;52.264;6.154;2023-05-10T06:45:39;13.60;99.90
47022;DHT22;32779;52.264;6.154;2023-05-10T06:48:04;13.50;99.90
47022;DHT22;32779;52.264;6.154;2023-05-10T06:50:30;13.50;99.90
47022;DHT22;32779;52.264;6.154;2023-05-10T06:52:56;13.50;99.90
47022;DHT22;32779;52.264;6.154;2023-05-10T06:55:21;13.50;99.90
47022;DHT22;32779;52.264;6.154;2023-05-10T06:57:47;13.50;99.90
47022;DHT22;32779;52.264;6.154;2023-05-10T07:00:13;13.50;99.90
47022;DHT22;32779;52.264;6.154;2023-05-10T07:02:39;13.50;99.90
47022;DHT22;32779;52.264;6.154;2023-05-10T07:05:04;13.50;99.90
47022;DHT22;32779;52.264;6.154;2023-05-10T07:07:30;13.50;99.90
47022;DHT22;32779;52.264;6.154;2023-05-10T07:09:56;13.40;99.90
47022;DHT22;32779;52.264;6.154;2023-05-10T07:12:23;13.40;99.90
47022;DHT22;32779;52.264;6.154;2023-05-10T07:14:48;13.40;99.90
47022;DHT22;32779;52.264;6.154;2023-05-10T07:17:14;13.40;99.90
47022;DHT22;32779;52.264;6.154;2023-05-10T07:19:39;13.40;99.90
47022;DHT22;32779;52.264;6.154;2023-05-10T07:22:05;13.40;99.90
47022;DHT22;32779;52.264;6.154;2023-05-10T07:24:31;13.50;99.90
47022;DHT22;32779;52.264;6.154;2023-05-10T07:26:57;13.50;99.90
47022;DHT22;32779;52.264;6.154;2023-05-10T07:29:22;13.40;99.90
47022;DHT22;32779;52.264;6.154;2023-05-10T07:31:48;13.50;99.90
47022;DHT22;32779;52.264;6.154;2023-05-10T07:34:13;13.50;99.90
47022;DHT22;32779;52.264;6.154;2023-05-10T07:36:39;13.50;99.90
47022;DHT22;32779;52.264;6.154;2023-05-10T07:39:04;13.50;99.90
47022;DHT22;32779;52.264;6.154;2023-05-10T07:41:30;13.60;99.90
47022;DHT22;32779;52.264;6.154;2023-05-10T07:43:55;13.60;99.90
47022;DHT22;32779;52.264;6.154;2023-05-10T07:46:21;13.60;99.90
47022;DHT22;32779;52.264;6.154;2023-05-10T07:48:46;13.70;99.90
47022;DHT22;32779;52.264;6.154;2023-05-10T07:51:12;13.70;99.90
47022;DHT22;32779;52.264;6.154;2023-05-10T07:53:38;13.80;99.90
47022;DHT22;32779;52.264;6.154;2023-05-10T07:58:47;13.70;99.90
47022;DHT22;32779;52.264;6.154;2023-05-10T08:01:13;13.80;99.90
47022;DHT22;32779;52.264;6.154;2023-05-10T08:03:38;13.80;99.90
47022;DHT22;32779;52.264;6.154;2023-05-10T08:06:03;13.80;99.90
47022;DHT22;32779;52.264;6.154;2023-05-10T08:08:29;13.80;99.90
47022;DHT22;32779;52.264;6.154;2023-05-10T08:10:55;13.80;99.90
47022;DHT22;32779;52.264;6.154;2023-05-10T08:13:20;13.80;99.90
47022;DHT22;32779;52.264;6.154;2023-05-10T08:15:46;13.90;99.90
47022;DHT22;32779;52.264;6.154;2023-05-10T08:18:12;13.90;99.90
47022;DHT22;32779;52.264;6.154;2023-05-10T08:20:37;13.90;99.90
47022;DHT22;32779;52.264;6.154;2023-05-10T08:23:03;14.00;99.90
47022;DHT22;32779;52.264;6.154;2023-05-10T08:25:29;14.00;99.90
47022;DHT22;32779;52.264;6.154;2023-05-10T08:27:55;14.00;99.90
47022;DHT22;32779;52.264;6.154;2023-05-10T08:30:20;14.00;99.90
47022;DHT22;32779;52.264;6.154;2023-05-10T08:32:46;14.00;99.90
47022;DHT22;32779;52.264;6.154;2023-05-10T08:35:11;14.00;99.90
47022;DHT22;32779;52.264;6.154;2023-05-10T08:37:37;14.00;99.90
47022;DHT22;32779;52.264;6.154;2023-05-10T08:40:02;14.10;99.90
47022;DHT22;32779;52.264;6.154;2023-05-10T08:42:28;14.10;99.90
47022;DHT22;32779;52.264;6.154;2023-05-10T08:44:55;14.10;99.90
47022;DHT22;32779;52.264;6.154;2023-05-10T08:47:22;14.10;99.90
47022;DHT22;32779;52.264;6.154;2023-05-10T08:49:47;14.10;99.90
47022;DHT22;32779;52.264;6.154;2023-05-10T08:52:16;14.10;99.90
47022;DHT22;32779;52.264;6.154;2023-05-10T08:54:42;14.10;99.90
47022;DHT22;32779;52.264;6.154;2023-05-10T08:57:09;14.20;99.90
47022;DHT22;32779;52.264;6.154;2023-05-10T08:59:34;14.20;99.90
47022;DHT22;32779;52.264;6.154;2023-05-10T09:02:00;14.20;99.90
47022;DHT22;32779;52.264;6.154;2023-05-10T09:04:26;14.20;99.90
47022;DHT22;32779;52.264;6.154;2023-05-10T09:06:52;14.20;99.90
47022;DHT22;32779;52.264;6.154;2023-05-10T09:09:18;14.20;99.90
47022;DHT22;32779;52.264;6.154;2023-05-10T09:11:44;14.30;99.90
47022;DHT22;32779;52.264;6.154;2023-05-10T09:14:10;14.30;99.90
47022;DHT22;32779;52.264;6.154;2023-05-10T09:16:37;14.40;99.90
47022;DHT22;32779;52.264;6.154;2023-05-10T09:19:03;14.40;99.90
47022;DHT22;32779;52.264;6.154;2023-05-10T09:21:28;14.50;99.90
47022;DHT22;32779;52.264;6.154;2023-05-10T09:23:55;14.60;99.90
47022;DHT22;32779;52.264;6.154;2023-05-10T09:26:24;14.60;99.90
47022;DHT22;32779;52.264;6.154;2023-05-10T09:28:59;14.70;99.90
47022;DHT22;32779;52.264;6.154;2023-05-10T09:31:43;14.70;99.90
47022;DHT22;32779;52.264;6.154;2023-05-10T09:34:09;14.60;99.90
47022;DHT22;32779;52.264;6.154;2023-05-10T09:36:34;14.60;99.90
47022;DHT22;32779;52.264;6.154;2023-05-10T09:39:00;14.60;99.90
47022;DHT22;32779;52.264;6.154;2023-05-10T09:41:25;14.50;99.90
47022;DHT22;32779;52.264;6.154;2023-05-10T09:43:55;14.50;99.90
47022;DHT22;32779;52.264;6.154;2023-05-10T09:46:20;14.50;99.90
47022;DHT22;32779;52.264;6.154;2023-05-10T09:48:46;14.40;99.90
47022;DHT22;32779;52.264;6.154;2023-05-10T09:51:22;14.40;99.90
47022;DHT22;32779;52.264;6.154;2023-05-10T09:53:48;14.40;99.90
47022;DHT22;32779;52.264;6.154;2023-05-10T09:56:34;14.50;99.90
47022;DHT22;32779;52.264;6.154;2023-05-10T09:59:03;14.60;99.90
47022;DHT22;32779;52.264;6.154;2023-05-10T10:01:29;14.50;99.90
47022;DHT22;32779;52.264;6.154;2023-05-10T10:03:54;14.50;99.90
47022;DHT22;32779;52.264;6.154;2023-05-10T10:06:23;14.60;99.90
47022;DHT22;32779;52.264;6.154;2023-05-10T10:08:48;14.60;99.90
47022;DHT22;32779;52.264;6.154;2023-05-10T10:11:14;14.50;99.90
47022;DHT22;32779;52.264;6.154;2023-05-10T10:13:39;14.50;99.90
47022;DHT22;32779;52.264;6.154;2023-05-10T10:16:05;14.60;99.90
47022;DHT22;32779;52.264;6.154;2023-05-10T10:18:31;14.60;99.90
47022;DHT22;32779;52.264;6.154;2023-05-10T10:20:56;14.70;99.90
47022;DHT22;32779;52.264;6.154;2023-05-10T10:23:22;14.70;99.90
47022;DHT22;32779;52.264;6.154;2023-05-10T10:25:48;14.70;99.90
47022;DHT22;32779;52.264;6.154;2023-05-10T10:35:33;15.10;99.90
47022;DHT22;32779;52.264;6.154;2023-05-10T10:37:59;15.10;99.90
47022;DHT22;32779;52.264;6.154;2023-05-10T10:40:28;15.10;99.90
47022;DHT22;32779;52.264;6.154;2023-05-10T10:42:54;15.10;99.90
47022;DHT22;32779;52.264;6.154;2023-05-10T10:45:21;15.10;99.90
47022;DHT22;32779;52.264;6.154;2023-05-10T10:47:47;15.10;99.90
47022;DHT22;32779;52.264;6.154;2023-05-10T10:50:12;15.20;99.90
47022;DHT22;32779;52.264;6.154;2023-05-10T10:52:39;15.30;99.90
47022;DHT22;32779;52.264;6.154;2023-05-10T10:55:06;15.40;99.90
47022;DHT22;32779;52.264;6.154;2023-05-10T10:57:46;15.50;99.90
47022;DHT22;32779;52.264;6.154;2023-05-10T11:00:26;15.50;99.90
47022;DHT22;32779;52.264;6.154;2023-05-10T11:02:56;15.60;99.90
47022;DHT22;32779;52.264;6.154;2023-05-10T11:05:23;15.70;99.90
47022;DHT22;32779;52.264;6.154;2023-05-10T11:07:52;15.90;99.90
47022;DHT22;32779;52.264;6.154;2023-05-10T11:10:19;15.90;99.90
47022;DHT22;32779;52.264;6.154;2023-05-10T11:13:26;16.10;99.90
47022;DHT22;32779;52.264;6.154;2023-05-10T11:15:38;16.20;99.90
47022;DHT22;32779;52.264;6.154;2023-05-10T11:20:58;16.30;99.90
47022;DHT22;32779;52.264;6.154;2023-05-10T11:26:08;16.50;99.90
47022;DHT22;32779;52.264;6.154;2023-05-10T11:28:43;16.60;99.90
47022;DHT22;32779;52.264;6.154;2023-05-10T11:31:09;16.60;99.90
47022;DHT22;32779;52.264;6.154;2023-05-10T11:33:44;16.70;99.90
47022;DHT22;32779;52.264;6.154;2023-05-10T11:39:05;16.80;99.90
47022;DHT22;32779;52.264;6.154;2023-05-10T11:41:30;16.70;99.90
47022;DHT22;32779;52.264;6.154;2023-05-10T11:43:56;16.70;99.90
47022;DHT22;32779;52.264;6.154;2023-05-10T11:46:23;16.60;99.90
47022;DHT22;32779;52.264;6.154;2023-05-10T11:48:50;16.70;99.90
47022;DHT22;32779;52.264;6.154;2023-05-10T11:51:19;16.70;99.90
47022;DHT22;32779;52.264;6.154;2023-05-10T11:53:45;16.80;99.90
47022;DHT22;32779;52.264;6.154;2023-05-10T11:56:11;16.80;99.90
47022;DHT22;32779;52.264;6.154;2023-05-10T11:58:37;16.90;99.90
47022;DHT22;32779;52.264;6.154;2023-05-10T12:01:03;16.90;99.90
47022;DHT22;32779;52.264;6.154;2023-05-10T12:03:29;16.90;99.90
47022;DHT22;32779;52.264;6.154;2023-05-10T12:05:55;17.00;99.90
47022;DHT22;32779;52.264;6.154;2023-05-10T12:08:22;17.10;99.90
47022;DHT22;32779;52.264;6.154;2023-05-10T12:10:48;17.20;99.90
47022;DHT22;32779;52.264;6.154;2023-05-10T12:13:14;17.20;99.90
47022;DHT22;32779;52.264;6.154;2023-05-10T12:15:40;17.20;99.90
47022;DHT22;32779;52.264;6.154;2023-05-10T12:18:07;17.30;99.90
47022;DHT22;32779;52.264;6.154;2023-05-10T12:20:33;17.40;99.90
47022;DHT22;32779;52.264;6.154;2023-05-10T12:22:58;17.40;99.90
47022;DHT22;32779;52.264;6.154;2023-05-10T12:25:30;17.50;99.90
47022;DHT22;32779;52.264;6.154;2023-05-10T12:27:57;17.40;99.90
47022;DHT22;32779;52.264;6.154;2023-05-10T12:30:23;17.40;99.90
47022;DHT22;32779;52.264;6.154;2023-05-10T12:32:48;17.30;99.90
47022;DHT22;32779;52.264;6.154;2023-05-10T12:35:14;17.30;99.90
47022;DHT22;32779;52.264;6.154;2023-05-10T12:37:41;17.20;99.90
47022;DHT22;32779;52.264;6.154;2023-05-10T12:40:07;17.20;99.90
47022;DHT22;32779;52.264;6.154;2023-05-10T12:42:34;17.20;99.90
47022;DHT22;32779;52.264;6.154;2023-05-10T12:45:01;17.20;99.90
47022;DHT22;32779;52.264;6.154;2023-05-10T12:47:27;17.10;99.90
47022;DHT22;32779;52.264;6.154;2023-05-10T12:49:52;17.00;99.90
47022;DHT22;32779;52.264;6.154;2023-05-10T12:52:18;17.00;99.90
47022;DHT22;32779;52.264;6.154;2023-05-10T12:54:43;16.90;99.90
47022;DHT22;32779;52.264;6.154;2023-05-10T12:57:09;16.90;99.90
47022;DHT22;32779;52.264;6.154;2023-05-10T12:59:34;16.80;99.90
47022;DHT22;32779;52.264;6.154;2023-05-10T13:02:00;16.80;99.90
47022;DHT22;32779;52.264;6.154;2023-05-10T13:04:25;16.70;99.90
47022;DHT22;32779;52.264;6.154;2023-05-10T13:06:51;16.70;99.90
47022;DHT22;32779;52.264;6.154;2023-05-10T13:09:16;16.60;99.90
47022;DHT22;32779;52.264;6.154;2023-05-10T13:11:42;16.60;99.90
47022;DHT22;32779;52.264;6.154;2023-05-10T13:14:07;16.50;99.90
47022;DHT22;32779;52.264;6.154;2023-05-10T13:16:33;16.60;99.90
47022;DHT22;32779;52.264;6.154;2023-05-10T13:18:58;16.50;99.90
47022;DHT22;32779;52.264;6.154;2023-05-10T13:21:24;16.50;99.90
47022;DHT22;32779;52.264;6.154;2023-05-10T13:23:50;16.50;99.90
47022;DHT22;32779;52.264;6.154;2023-05-10T13:26:15;16.60;99.90
47022;DHT22;32779;52.264;6.154;2023-05-10T13:28:41;16.70;99.90
47022;DHT22;32779;52.264;6.154;2023-05-10T13:31:06;16.80;99.90
47022;DHT22;32779;52.264;6.154;2023-05-10T13:33:32;16.90;99.90
47022;DHT22;32779;52.264;6.154;2023-05-10T13:35:57;16.90;99.90
47022;DHT22;32779;52.264;6.154;2023-05-10T13:38:23;17.10;99.90
47022;DHT22;32779;52.264;6.154;2023-05-10T13:40:48;17.10;99.90
47022;DHT22;32779;52.264;6.154;2023-05-10T13:43:18;17.20;99.90
47022;DHT22;32779;52.264;6.154;2023-05-10T13:45:43;17.30;99.90
47022;DHT22;32779;52.264;6.154;2023-05-10T13:48:09;17.40;99.90
47022;DHT22;32779;52.264;6.154;2023-05-10T13:50:34;17.50;99.90
47022;DHT22;32779;52.264;6.154;2023-05-10T13:53:00;17.50;99.90
47022;DHT22;32779;52.264;6.154;2023-05-10T13:55:25;17.60;99.90
47022;DHT22;32779;52.264;6.154;2023-05-10T13:57:51;17.60;99.90
47022;DHT22;32779;52.264;6.154;2023-05-10T14:00:17;17.60;99.90
47022;DHT22;32779;52.264;6.154;2023-05-10T14:02:42;17.60;99.90
47022;DHT22;32779;52.264;6.154;2023-05-10T14:05:08;17.60;99.90
47022;DHT22;32779;52.264;6.154;2023-05-10T14:07:33;17.60;99.90
47022;DHT22;32779;52.264;6.154;2023-05-10T14:09:59;17.60;99.90
47022;DHT22;32779;52.264;6.154;2023-05-10T14:12:25;17.60;99.90
47022;DHT22;32779;52.264;6.154;2023-05-10T14:14:50;17.60;99.90
47022;DHT22;32779;52.264;6.154;2023-05-10T14:17:17;17.60;99.90
47022;DHT22;32779;52.264;6.154;2023-05-10T14:19:43;17.50;99.90
47022;DHT22;32779;52.264;6.154;2023-05-10T14:22:08;17.50;99.90
47022;DHT22;32779;52.264;6.154;2023-05-10T14:24:34;17.40;99.90
47022;DHT22;32779;52.264;6.154;2023-05-10T14:26:59;17.50;99.90
47022;DHT22;32779;52.264;6.154;2023-05-10T14:29:25;17.50;99.90
47022;DHT22;32779;52.264;6.154;2023-05-10T14:31:51;17.50;99.90
47022;DHT22;32779;52.264;6.154;2023-05-10T14:34:16;17.50;99.90
47022;DHT22;32779;52.264;6.154;2023-05-10T14:36:42;17.40;99.90
47022;DHT22;32779;52.264;6.154;2023-05-10T14:39:07;17.40;99.90
47022;DHT22;32779;52.264;6.154;2023-05-10T14:41:35;17.50;99.90
47022;DHT22;32779;52.264;6.154;2023-05-10T14:44:00;17.50;99.90
47022;DHT22;32779;52.264;6.154;2023-05-10T14:46:28;17.50;99.90
47022;DHT22;32779;52.264;6.154;2023-05-10T14:48:55;17.50;99.90
47022;DHT22;32779;52.264;6.154;2023-05-10T14:51:20;17.60;99.90
47022;DHT22;32779;52.264;6.154;2023-05-10T14:53:47;17.60;99.90
47022;DHT22;32779;52.264;6.154;2023-05-10T14:56:13;17.70;99.90
47022;DHT22;32779;52.264;6.154;2023-05-10T14:58:39;17.70;99.90
47022;DHT22;32779;52.264;6.154;2023-05-10T15:01:04;17.80;99.90
47022;DHT22;32779;52.264;6.154;2023-05-10T15:03:30;17.80;99.90
47022;DHT22;32779;52.264;6.154;2023-05-10T15:05:55;17.80;99.90
47022;DHT22;32779;52.264;6.154;2023-05-10T15:08:22;17.90;99.90
47022;DHT22;32779;52.264;6.154;2023-05-10T15:10:49;17.90;99.90
47022;DHT22;32779;52.264;6.154;2023-05-10T15:13:15;18.00;99.90
47022;DHT22;32779;52.264;6.154;2023-05-10T15:15:41;18.10;99.90
47022;DHT22;32779;52.264;6.154;2023-05-10T15:18:08;18.10;99.90
47022;DHT22;32779;52.264;6.154;2023-05-10T15:20:33;18.10;99.90
47022;DHT22;32779;52.264;6.154;2023-05-10T15:23:00;18.00;99.90
47022;DHT22;32779;52.264;6.154;2023-05-10T15:25:25;18.00;99.90
47022;DHT22;32779;52.264;6.154;2023-05-10T15:27:51;17.90;99.90
47022;DHT22;32779;52.264;6.154;2023-05-10T15:30:16;18.00;99.90
47022;DHT22;32779;52.264;6.154;2023-05-10T15:32:42;18.10;99.90
47022;DHT22;32779;52.264;6.154;2023-05-10T15:35:08;18.10;99.90
47022;DHT22;32779;52.264;6.154;2023-05-10T15:37:35;18.20;99.90
47022;DHT22;32779;52.264;6.154;2023-05-10T15:40:00;18.20;99.90
47022;DHT22;32779;52.264;6.154;2023-05-10T15:42:29;18.20;99.90
47022;DHT22;32779;52.264;6.154;2023-05-10T15:44:55;18.10;99.90
47022;DHT22;32779;52.264;6.154;2023-05-10T15:47:21;18.10;99.90
47022;DHT22;32779;52.264;6.154;2023-05-10T15:49:46;18.10;99.90
47022;DHT22;32779;52.264;6.154;2023-05-10T15:52:12;18.00;99.90
47022;DHT22;32779;52.264;6.154;2023-05-10T15:54:37;18.00;99.90
47022;DHT22;32779;52.264;6.154;2023-05-10T15:57:03;18.00;99.90
47022;DHT22;32779;52.264;6.154;2023-05-10T15:59:28;18.00;99.90